createdAt,value
2018-11-02T00:02:17.307Z,9.80
2018-11-02T00:04:45.780Z,9.80
2018-11-02T00:07:14.961Z,9.80
2018-11-02T00:09:43.390Z,9.70
2018-11-02T00:12:12.005Z,9.70
2018-11-02T00:14:40.433Z,9.70
2018-11-02T00:17:08.915Z,9.70
2018-11-02T00:19:37.313Z,9.70
2018-11-02T00:22:06.678Z,9.70
2018-11-02T00:24:35.233Z,9.70
2018-11-02T00:27:03.811Z,9.70
2018-11-02T00:29:33.006Z,9.70
2018-11-02T00:32:01.505Z,9.60
2018-11-02T00:34:30.006Z,9.60
2018-11-02T00:36:58.507Z,9.60
2018-11-02T00:39:26.942Z,9.50
2018-11-02T00:41:55.649Z,9.40
2018-11-02T00:44:24.061Z,9.40
2018-11-02T00:46:52.456Z,9.40
2018-11-02T00:49:20.907Z,9.30
2018-11-02T00:51:49.365Z,9.30
2018-11-02T00:54:17.814Z,9.30
2018-11-02T00:56:46.223Z,9.20
2018-11-02T00:59:14.653Z,9.30
2018-11-02T01:01:43.105Z,9.30
2018-11-02T01:04:11.543Z,9.40
2018-11-02T01:06:40.022Z,9.40
2018-11-02T01:09:10.011Z,9.40
2018-11-02T01:11:39.408Z,9.50
2018-11-02T01:14:08.018Z,9.50
2018-11-02T01:16:36.499Z,9.50
2018-11-02T01:19:05.115Z,9.50
2018-11-02T01:21:33.745Z,9.50
2018-11-02T01:24:02.157Z,9.50
2018-11-02T01:26:30.587Z,9.50
2018-11-02T01:28:59.025Z,9.50
2018-11-02T01:31:27.454Z,9.50
2018-11-02T01:33:55.884Z,9.50
2018-11-02T01:36:24.332Z,9.50
2018-11-02T01:38:52.774Z,9.50
2018-11-02T01:41:21.177Z,9.50
2018-11-02T01:43:49.597Z,9.60
2018-11-02T01:46:18.588Z,9.60
2018-11-02T01:48:46.996Z,9.60
2018-11-02T01:51:15.424Z,9.60
2018-11-02T01:53:43.814Z,9.60
2018-11-02T01:56:12.267Z,9.60
2018-11-02T01:58:40.673Z,9.50
2018-11-02T02:01:09.103Z,9.50
2018-11-02T02:03:37.523Z,9.50
2018-11-02T02:06:12.720Z,9.50
2018-11-02T02:08:41.145Z,9.50
2018-11-02T02:11:09.585Z,9.50
2018-11-02T02:13:37.998Z,9.50
2018-11-02T02:16:06.625Z,9.50
2018-11-02T02:18:35.026Z,9.50
2018-11-02T02:21:03.442Z,9.50
2018-11-02T02:23:31.860Z,9.40
2018-11-02T02:26:00.240Z,9.40
2018-11-02T02:28:28.680Z,9.40
2018-11-02T02:30:57.044Z,9.30
2018-11-02T02:33:25.537Z,9.30
2018-11-02T02:35:53.927Z,9.40
2018-11-02T02:38:22.345Z,9.40
2018-11-02T02:40:50.751Z,9.50
2018-11-02T02:43:19.179Z,9.60
2018-11-02T02:45:47.569Z,9.70
2018-11-02T02:48:15.954Z,9.70
2018-11-02T02:50:44.387Z,9.80
2018-11-02T02:53:12.777Z,9.90
2018-11-02T02:55:41.201Z,9.90
2018-11-02T02:58:09.608Z,9.90
2018-11-02T03:00:38.008Z,9.90
2018-11-02T03:03:06.721Z,10.00
2018-11-02T03:05:35.115Z,10.00
2018-11-02T03:08:03.585Z,10.00
2018-11-02T03:10:32.051Z,10.00
2018-11-02T03:13:00.550Z,10.00
2018-11-02T03:15:28.962Z,10.10
2018-11-02T03:17:57.498Z,10.10
2018-11-02T03:20:25.977Z,10.00
2018-11-02T03:22:55.104Z,10.10
2018-11-02T03:25:23.637Z,10.10
2018-11-02T03:27:52.070Z,10.20
2018-11-02T03:30:20.530Z,10.20
2018-11-02T03:32:49.004Z,10.20
2018-11-02T03:35:17.524Z,10.10
2018-11-02T03:37:45.992Z,10.20
2018-11-02T03:40:14.420Z,10.20
2018-11-02T03:42:43.841Z,10.20
2018-11-02T03:45:12.234Z,10.20
2018-11-02T03:47:40.735Z,10.20
2018-11-02T03:50:10.736Z,10.20
2018-11-02T03:52:39.533Z,10.20
2018-11-02T03:55:08.914Z,10.20
2018-11-02T03:57:37.328Z,10.20
2018-11-02T04:00:06.893Z,10.20
2018-11-02T04:02:35.314Z,10.00
2018-11-02T04:05:03.814Z,10.00
2018-11-02T04:07:32.355Z,9.90
2018-11-02T04:10:00.809Z,9.80
2018-11-02T04:12:29.321Z,9.70
2018-11-02T04:14:57.917Z,9.70
2018-11-02T04:17:26.444Z,9.60
2018-11-02T04:19:54.910Z,9.50
2018-11-02T04:22:24.323Z,9.40
2018-11-02T04:24:52.767Z,9.30
2018-11-02T04:27:21.354Z,9.30
2018-11-02T04:29:49.900Z,9.20
2018-11-02T04:32:18.305Z,9.10
2018-11-02T04:34:46.831Z,9.10
2018-11-02T04:37:15.292Z,9.00
2018-11-02T04:39:52.469Z,8.90
2018-11-02T04:42:20.881Z,8.90
2018-11-02T04:44:53.368Z,8.90
2018-11-02T04:47:21.811Z,8.90
2018-11-02T04:49:56.275Z,9.00
2018-11-02T04:52:24.795Z,9.10
2018-11-02T04:54:53.252Z,9.20
2018-11-02T04:57:21.862Z,9.20
2018-11-02T04:59:50.314Z,9.30
2018-11-02T05:02:18.761Z,9.30
2018-11-02T05:04:47.342Z,9.30
2018-11-02T05:07:15.761Z,9.30
2018-11-02T05:09:45.066Z,9.30
2018-11-02T05:12:13.524Z,9.40
2018-11-02T05:14:42.001Z,9.30
2018-11-02T05:17:10.453Z,9.30
2018-11-02T05:19:38.893Z,9.20
2018-11-02T05:22:07.468Z,9.20
2018-11-02T05:24:35.936Z,9.20
2018-11-02T05:27:04.382Z,9.20
2018-11-02T05:29:32.808Z,9.20
2018-11-02T05:32:01.313Z,9.20
2018-11-02T05:34:29.744Z,9.20
2018-11-02T05:36:58.226Z,9.20
2018-11-02T05:39:26.832Z,9.20
2018-11-02T05:41:55.284Z,9.20
2018-11-02T05:44:23.953Z,9.20
2018-11-02T05:46:52.522Z,9.20
2018-11-02T05:49:21.201Z,9.20
2018-11-02T05:51:49.680Z,9.30
2018-11-02T05:54:18.207Z,9.30
2018-11-02T05:56:46.638Z,9.30
2018-11-02T05:59:15.186Z,9.40
2018-11-02T06:01:43.654Z,9.50
2018-11-02T06:04:12.081Z,9.40
2018-11-02T06:06:40.562Z,9.50
2018-11-02T06:09:09.341Z,9.50
2018-11-02T06:11:37.802Z,9.60
2018-11-02T06:14:06.299Z,9.60
2018-11-02T06:16:35.393Z,9.60
2018-11-02T06:19:03.844Z,9.60
2018-11-02T06:21:32.420Z,9.60
2018-11-02T06:24:01.143Z,9.70
2018-11-02T06:26:30.986Z,9.70
2018-11-02T06:28:59.482Z,9.70
2018-11-02T06:31:28.079Z,9.80
2018-11-02T06:33:56.607Z,9.80
2018-11-02T06:36:25.064Z,9.70
2018-11-02T06:38:53.729Z,9.80
2018-11-02T06:41:22.857Z,9.80
2018-11-02T06:43:51.402Z,9.80
2018-11-02T06:46:20.230Z,9.80
2018-11-02T06:48:48.681Z,9.80
2018-11-02T06:51:17.177Z,9.90
2018-11-02T06:53:45.748Z,9.80
2018-11-02T06:56:14.366Z,9.80
2018-11-02T06:58:42.914Z,9.80
2018-11-02T07:01:11.410Z,9.80
2018-11-02T07:03:39.881Z,9.80
2018-11-02T07:06:08.327Z,9.80
2018-11-02T07:08:36.979Z,9.80
2018-11-02T07:11:05.393Z,9.90
2018-11-02T07:13:33.883Z,9.90
2018-11-02T07:16:02.360Z,9.90
2018-11-02T07:18:31.014Z,9.90
2018-11-02T07:20:59.489Z,10.00
2018-11-02T07:23:28.197Z,9.90
2018-11-02T07:25:57.033Z,10.00
2018-11-02T07:28:25.910Z,10.00
2018-11-02T07:30:54.519Z,10.20
2018-11-02T07:33:24.172Z,10.20
2018-11-02T07:35:53.051Z,10.40
2018-11-02T07:38:21.936Z,10.50
2018-11-02T07:40:50.894Z,10.80
2018-11-02T07:43:19.931Z,11.00
2018-11-02T07:45:48.844Z,11.40
2018-11-02T07:48:18.101Z,11.80
2018-11-02T07:50:47.030Z,12.30
2018-11-02T07:53:15.757Z,12.60
2018-11-02T07:55:44.473Z,12.90
2018-11-02T07:58:13.275Z,13.10
2018-11-02T08:00:42.111Z,13.30
2018-11-02T08:03:10.811Z,13.40
2018-11-02T08:05:39.475Z,13.50
2018-11-02T08:08:08.475Z,13.50
2018-11-02T08:10:37.093Z,13.50
2018-11-02T08:13:06.022Z,13.50
2018-11-02T08:15:34.857Z,13.60
2018-11-02T08:18:04.262Z,13.60
2018-11-02T08:20:33.072Z,13.60
2018-11-02T08:23:01.893Z,13.70
2018-11-02T08:25:30.717Z,13.70
2018-11-02T08:27:59.990Z,13.80
2018-11-02T08:30:28.964Z,13.70
2018-11-02T08:33:04.282Z,13.70
2018-11-02T08:35:33.858Z,13.50
2018-11-02T08:38:02.537Z,13.40
2018-11-02T08:43:22.234Z,13.30
2018-11-02T08:45:51.760Z,13.30
2018-11-02T08:48:20.871Z,13.40
2018-11-02T08:50:51.576Z,13.50
2018-11-02T08:53:20.948Z,13.80
2018-11-02T08:55:49.830Z,14.00
2018-11-02T08:58:19.111Z,14.10
2018-11-02T09:00:47.697Z,14.30
2018-11-02T09:03:17.659Z,14.50
2018-11-02T09:05:47.371Z,14.50
2018-11-02T09:08:16.081Z,14.60
2018-11-02T09:10:46.170Z,15.20
2018-11-02T09:13:15.980Z,16.00
2018-11-02T09:15:44.888Z,16.90
2018-11-02T09:18:14.227Z,17.90
2018-11-02T09:20:43.160Z,18.60
2018-11-02T09:23:12.235Z,18.70
2018-11-02T09:25:41.168Z,18.70
2018-11-02T09:28:10.894Z,18.50
2018-11-02T09:30:39.951Z,18.20
2018-11-02T09:33:09.007Z,17.90
2018-11-02T09:35:39.096Z,17.70
2018-11-02T09:38:08.177Z,17.60
2018-11-02T09:40:37.239Z,17.80
2018-11-02T09:43:06.509Z,17.80
2018-11-02T09:45:36.453Z,17.50
2018-11-02T09:48:05.948Z,17.20
2018-11-02T09:50:35.239Z,17.10
2018-11-02T09:53:04.199Z,16.80
2018-11-02T09:55:33.329Z,16.50
2018-11-02T09:58:02.709Z,16.40
2018-11-02T10:00:31.749Z,16.30
2018-11-02T10:03:00.740Z,16.30
2018-11-02T10:05:29.238Z,16.40
2018-11-02T10:07:57.860Z,16.50
2018-11-02T10:10:26.662Z,16.60
2018-11-02T10:12:55.756Z,16.50
2018-11-02T10:15:24.587Z,16.50
2018-11-02T10:17:53.333Z,16.40
2018-11-02T10:20:21.893Z,16.20
2018-11-02T10:22:50.350Z,16.10
2018-11-02T10:25:18.927Z,16.00
2018-11-02T10:27:47.559Z,15.90
2018-11-02T10:30:16.261Z,15.70
2018-11-02T10:32:54.731Z,15.60
2018-11-02T10:35:23.987Z,15.50
2018-11-02T10:37:54.391Z,15.40
2018-11-02T10:40:23.335Z,15.30
2018-11-02T10:42:57.103Z,15.20
2018-11-02T10:45:33.147Z,15.10
2018-11-02T10:48:03.455Z,15.00
2018-11-02T10:50:32.122Z,14.90
2018-11-02T10:53:01.616Z,14.90
2018-11-02T10:55:30.367Z,15.00
2018-11-02T10:57:59.167Z,15.10
2018-11-02T11:00:33.287Z,15.00
2018-11-02T11:03:01.998Z,14.90
2018-11-02T11:05:30.981Z,14.80
2018-11-02T11:07:59.748Z,14.80
2018-11-02T11:10:28.417Z,14.90
2018-11-02T11:12:57.317Z,15.10
2018-11-02T11:15:25.768Z,15.20
2018-11-02T11:17:54.623Z,15.40
2018-11-02T11:20:23.719Z,15.50
2018-11-02T11:22:52.354Z,15.60
2018-11-02T11:25:20.831Z,15.70
2018-11-02T11:27:49.488Z,15.70
2018-11-02T11:30:19.386Z,15.70
2018-11-02T11:32:49.270Z,15.60
2018-11-02T11:35:18.647Z,15.60
2018-11-02T11:37:47.547Z,15.60
2018-11-02T11:40:17.390Z,15.70
2018-11-02T11:42:46.154Z,15.80
2018-11-02T11:45:16.848Z,15.70
2018-11-02T11:47:45.724Z,15.80
2018-11-02T11:50:17.725Z,15.80
2018-11-02T11:52:47.446Z,15.80
2018-11-02T11:55:16.630Z,15.70
2018-11-02T11:57:45.215Z,15.50
2018-11-02T12:00:16.963Z,15.50
2018-11-02T12:02:46.760Z,15.40
2018-11-02T12:05:17.098Z,15.20
2018-11-02T12:07:45.673Z,15.20
2018-11-02T12:10:18.698Z,14.90
2018-11-02T12:12:47.225Z,14.60
2018-11-02T12:15:17.495Z,14.60
2018-11-02T12:17:46.565Z,14.60
2018-11-02T12:20:19.743Z,14.50
2018-11-02T12:22:49.057Z,14.40
2018-11-02T12:25:17.645Z,14.40
2018-11-02T12:27:46.259Z,14.30
2018-11-02T12:30:15.945Z,14.20
2018-11-02T12:32:44.515Z,14.00
2018-11-02T12:35:14.533Z,14.00
2018-11-02T12:37:43.037Z,14.00
2018-11-02T12:40:14.029Z,14.00
2018-11-02T12:42:43.121Z,13.90
2018-11-02T12:45:13.160Z,13.80
2018-11-02T12:47:42.230Z,13.70
2018-11-02T12:50:18.270Z,13.60
2018-11-02T12:52:47.505Z,13.60
2018-11-02T12:55:16.587Z,13.60
2018-11-02T12:57:45.463Z,13.70
2018-11-02T13:00:16.236Z,13.80
2018-11-02T13:02:45.508Z,13.80
2018-11-02T13:05:14.065Z,13.90
2018-11-02T13:07:42.569Z,13.90
2018-11-02T13:10:13.390Z,13.80
2018-11-02T13:12:41.897Z,13.80
2018-11-02T13:15:12.413Z,13.80
2018-11-02T13:17:42.017Z,13.80
2018-11-02T13:20:11.133Z,13.90
2018-11-02T13:22:40.320Z,14.00
2018-11-02T13:25:10.942Z,14.00
2018-11-02T13:27:46.855Z,14.10
2018-11-02T13:30:15.439Z,14.10
2018-11-02T13:32:43.926Z,14.10
2018-11-02T13:35:17.361Z,14.10
2018-11-02T13:37:46.370Z,14.00
2018-11-02T13:40:16.057Z,14.00
2018-11-02T13:42:45.067Z,14.00
2018-11-02T13:45:14.842Z,14.10
2018-11-02T13:47:43.867Z,14.20
2018-11-02T13:50:12.852Z,14.20
2018-11-02T13:52:42.545Z,14.10
2018-11-02T13:55:11.953Z,14.10
2018-11-02T13:57:40.992Z,14.00
2018-11-02T14:00:12.484Z,14.10
2018-11-02T14:02:41.492Z,14.10
2018-11-02T14:05:11.875Z,14.20
2018-11-02T14:07:40.732Z,14.20
2018-11-02T14:10:10.768Z,14.30
2018-11-02T14:12:40.050Z,14.30
2018-11-02T14:15:10.962Z,14.40
2018-11-02T14:17:40.135Z,14.40
2018-11-02T14:20:10.030Z,14.30
2018-11-02T14:22:38.875Z,14.20
2018-11-02T14:25:09.273Z,14.10
2018-11-02T14:27:38.047Z,14.00
2018-11-02T14:30:08.677Z,13.90
2018-11-02T14:32:37.819Z,13.90
2018-11-02T14:35:06.885Z,13.80
2018-11-02T14:37:35.676Z,13.70
2018-11-02T14:40:05.504Z,13.70
2018-11-02T14:42:34.249Z,13.60
2018-11-02T14:45:02.815Z,13.50
2018-11-02T14:47:31.312Z,13.40
2018-11-02T14:49:59.810Z,13.40
2018-11-02T14:52:29.215Z,13.30
2018-11-02T14:54:57.786Z,13.30
2018-11-02T14:57:26.272Z,13.20
2018-11-02T14:59:55.547Z,13.20
2018-11-02T15:02:24.085Z,13.10
2018-11-02T15:04:52.629Z,13.10
2018-11-02T15:07:21.340Z,13.00
2018-11-02T15:09:49.814Z,12.90
2018-11-02T15:12:18.327Z,12.90
2018-11-02T15:14:47.140Z,12.80
2018-11-02T15:17:15.977Z,12.70
2018-11-02T15:19:45.041Z,12.60
2018-11-02T15:22:13.761Z,12.50
2018-11-02T15:24:43.428Z,12.50
2018-11-02T15:27:11.995Z,12.40
2018-11-02T15:29:40.766Z,12.30
2018-11-02T15:32:09.408Z,12.20
2018-11-02T15:34:38.052Z,12.10
2018-11-02T15:37:06.415Z,12.00
2018-11-02T15:39:34.937Z,11.90
2018-11-02T15:42:03.523Z,11.80
2018-11-02T15:44:32.124Z,11.70
2018-11-02T15:47:00.537Z,11.50
2018-11-02T15:49:29.110Z,11.40
2018-11-02T15:51:57.633Z,11.30
2018-11-02T15:54:26.099Z,11.20
2018-11-02T15:56:55.287Z,11.10
2018-11-02T15:59:23.792Z,10.90
2018-11-02T16:01:52.612Z,10.80
2018-11-02T16:04:21.282Z,10.70
2018-11-02T16:06:49.882Z,10.60
2018-11-02T16:09:18.449Z,10.50
2018-11-02T16:11:47.303Z,10.40
2018-11-02T16:14:15.872Z,10.30
2018-11-02T16:16:44.390Z,10.20
2018-11-02T16:19:12.898Z,10.00
2018-11-02T16:21:41.546Z,9.90
2018-11-02T16:24:11.210Z,9.80
2018-11-02T16:26:40.154Z,9.70
2018-11-02T16:29:08.685Z,9.60
2018-11-02T16:31:37.156Z,9.50
2018-11-02T16:34:05.979Z,9.40
2018-11-02T16:36:34.491Z,9.30
2018-11-02T16:39:03.125Z,9.20
2018-11-02T16:41:51.346Z,9.20
2018-11-02T16:47:10.620Z,9.00
2018-11-02T16:49:39.250Z,8.90
2018-11-02T16:52:08.977Z,8.90
2018-11-02T16:54:37.684Z,8.90
2018-11-02T16:57:06.133Z,8.80
2018-11-02T16:59:35.145Z,8.80
2018-11-02T17:02:03.672Z,8.70
2018-11-02T17:04:32.145Z,8.60
2018-11-02T17:07:00.886Z,8.50
2018-11-02T17:09:30.291Z,8.50
2018-11-02T17:14:49.699Z,8.30
2018-11-02T17:17:18.189Z,8.20
2018-11-02T17:19:46.652Z,8.10
2018-11-02T17:22:15.235Z,8.10
2018-11-02T17:24:43.700Z,8.00
2018-11-02T17:27:12.207Z,7.90
2018-11-02T17:29:40.743Z,7.90
2018-11-02T17:32:09.235Z,7.80
2018-11-02T17:34:37.722Z,7.70
2018-11-02T17:37:07.569Z,7.60
2018-11-02T17:39:37.406Z,7.60
2018-11-02T17:42:06.515Z,7.60
2018-11-02T17:44:35.051Z,7.60
2018-11-02T17:47:03.558Z,7.50
2018-11-02T17:49:32.167Z,7.50
2018-11-02T17:52:00.754Z,7.50
2018-11-02T17:54:29.341Z,7.40
2018-11-02T17:56:58.502Z,7.30
2018-11-02T17:59:27.143Z,7.20
2018-11-02T18:01:55.792Z,7.20
2018-11-02T18:04:24.552Z,7.10
2018-11-02T18:06:53.364Z,7.00
2018-11-02T18:09:21.954Z,6.90
2018-11-02T18:11:50.974Z,6.80
2018-11-02T18:14:19.597Z,6.70
2018-11-02T18:16:48.063Z,6.60
2018-11-02T18:19:16.573Z,6.60
2018-11-02T18:21:45.158Z,6.50
2018-11-02T18:24:14.426Z,6.40
2018-11-02T18:26:42.879Z,6.40
2018-11-02T18:29:11.480Z,6.30
2018-11-02T18:31:41.170Z,6.20
2018-11-02T18:34:09.764Z,6.10
2018-11-02T18:36:38.834Z,6.10
2018-11-02T18:39:12.217Z,6.00
2018-11-02T18:41:41.325Z,6.00
2018-11-02T18:44:10.634Z,5.90
2018-11-02T18:46:39.999Z,5.90
2018-11-02T18:49:08.647Z,5.80
2018-11-02T18:51:37.480Z,5.80
2018-11-02T18:54:06.164Z,5.70
2018-11-02T18:56:35.159Z,5.70
2018-11-02T18:59:03.720Z,5.60
2018-11-02T19:01:32.264Z,5.60
2018-11-02T19:04:00.940Z,5.60
2018-11-02T19:06:29.734Z,5.50
2018-11-02T19:08:58.297Z,5.40
2018-11-02T19:11:26.821Z,5.40
2018-11-02T19:13:55.865Z,5.40
2018-11-02T19:16:24.469Z,5.40
2018-11-02T19:18:53.115Z,5.30
2018-11-02T19:21:21.683Z,5.30
2018-11-02T19:23:50.355Z,5.20
2018-11-02T19:26:19.009Z,5.20
2018-11-02T19:28:47.892Z,5.10
2018-11-02T19:31:16.480Z,5.10
2018-11-02T19:33:45.255Z,5.00
2018-11-02T19:36:13.833Z,5.00
2018-11-02T19:38:42.703Z,5.00
2018-11-02T19:41:11.463Z,5.00
2018-11-02T19:43:40.775Z,4.90
2018-11-02T19:46:09.634Z,4.90
2018-11-02T19:48:38.702Z,4.80
2018-11-02T19:51:08.226Z,4.80
2018-11-02T19:53:37.337Z,4.70
2018-11-02T19:56:06.280Z,4.70
2018-11-02T19:58:35.200Z,4.70
2018-11-02T20:01:04.089Z,4.70
2018-11-02T20:03:32.776Z,4.60
2018-11-02T20:06:01.521Z,4.50
2018-11-02T20:08:30.852Z,4.40
2018-11-02T20:10:59.693Z,4.40
2018-11-02T20:13:50.868Z,4.40
2018-11-02T20:16:19.944Z,4.40
2018-11-02T20:19:56.909Z,4.40
2018-11-02T20:22:26.078Z,4.30
2018-11-02T20:24:55.002Z,4.30
2018-11-02T20:27:24.270Z,4.20
2018-11-02T20:29:52.959Z,4.20
2018-11-02T20:32:21.684Z,4.20
2018-11-02T20:34:54.307Z,4.10
2018-11-02T20:37:23.221Z,4.10
2018-11-02T20:39:52.307Z,4.10
2018-11-02T20:45:06.589Z,4.00
2018-11-02T20:47:40.700Z,4.00
2018-11-02T20:50:11.163Z,3.90
2018-11-02T20:52:41.130Z,3.90
2018-11-02T20:55:12.101Z,3.90
2018-11-02T20:57:41.871Z,3.80
2018-11-02T21:00:13.894Z,3.80
2018-11-02T21:02:43.374Z,3.80
2018-11-02T21:05:15.410Z,3.70
2018-11-02T21:07:44.758Z,3.60
2018-11-02T21:10:14.655Z,3.60
2018-11-02T21:12:44.021Z,3.60
2018-11-02T21:15:18.441Z,3.60
2018-11-02T21:17:47.518Z,3.50
2018-11-02T21:20:18.559Z,3.60
2018-11-02T21:22:47.350Z,3.60
2018-11-02T21:25:16.158Z,3.50
2018-11-02T21:27:45.299Z,3.50
2018-11-02T21:30:28.209Z,3.50
2018-11-02T21:32:57.046Z,3.50
2018-11-02T21:43:57.609Z,3.40
2018-11-02T21:46:26.416Z,3.40
2018-11-02T21:48:55.209Z,3.30
2018-11-02T21:54:15.902Z,3.30
2018-11-02T21:56:53.211Z,3.30
2018-11-02T21:59:21.901Z,3.30
2018-11-02T22:01:53.489Z,3.30
2018-11-02T22:04:22.042Z,3.30
2018-11-02T22:06:51.172Z,3.30
2018-11-02T22:09:20.011Z,3.30
2018-11-02T22:11:53.466Z,3.30
2018-11-02T22:14:22.295Z,3.30
2018-11-02T22:16:54.048Z,3.30
2018-11-02T22:19:22.796Z,3.30
2018-11-02T22:21:51.417Z,3.20
2018-11-02T22:24:20.005Z,3.20
2018-11-02T22:26:49.320Z,3.20
2018-11-02T22:29:17.866Z,3.30
2018-11-02T22:31:46.610Z,3.20
2018-11-02T22:34:15.234Z,3.20
2018-11-02T22:36:44.410Z,3.20
2018-11-02T22:39:12.963Z,3.10
2018-11-02T22:41:42.366Z,3.10
2018-11-02T22:44:11.183Z,3.10
2018-11-02T22:46:40.421Z,3.10
2018-11-02T22:49:09.107Z,3.10
2018-11-02T22:51:37.841Z,3.10
2018-11-02T22:54:07.430Z,3.00
2018-11-02T22:56:37.428Z,3.00
2018-11-02T22:59:06.911Z,2.90
2018-11-02T23:01:36.812Z,2.90
2018-11-02T23:04:07.053Z,3.00
2018-11-02T23:06:39.324Z,2.90
2018-11-02T23:09:16.426Z,2.90
2018-11-02T23:11:45.164Z,2.90
2018-11-02T23:14:18.450Z,2.90
2018-11-02T23:16:47.163Z,2.90
2018-11-02T23:22:02.428Z,2.80
2018-11-02T23:24:32.178Z,2.80
2018-11-02T23:27:01.063Z,2.70
2018-11-02T23:29:30.730Z,2.70
2018-11-02T23:32:02.151Z,2.70
2018-11-02T23:34:34.063Z,2.70
2018-11-02T23:37:05.212Z,2.70
2018-11-02T23:39:34.320Z,2.70
2018-11-02T23:42:03.510Z,2.70
2018-11-02T23:44:32.397Z,2.70
2018-11-02T23:47:01.861Z,2.70
2018-11-02T23:49:31.864Z,2.60
2018-11-02T23:52:00.421Z,2.60
2018-11-02T23:54:29.106Z,2.60
2018-11-02T23:56:58.640Z,2.60
2018-11-02T23:59:28.249Z,2.60
